Time,TemperatureF,DewpointF,PressureIn,WindDirection,WindDirectionDegrees,WindSpeedMPH,WindSpeedGustMPH,Humidity,HourlyPrecipIn,Conditions,Clouds,dailyrainin,SoftwareType,DateUTC
2013-08-25 00:00:00,56.1,55.0,30.31,East,81,0.0,0.0,96,0.00,,,0.00,meteohub,2013-08-25 04:00:00,
2013-08-25 00:01:00,56.1,55.0,30.31,East,81,0.0,0.0,96,0.00,,,0.00,meteohub,2013-08-25 04:01:00,
2013-08-25 00:03:00,56.1,55.0,30.31,East,81,0.0,0.0,96,0.00,,,0.00,meteohub,2013-08-25 04:03:00,
2013-08-25 00:08:00,56.1,55.0,30.31,East,80,0.0,0.0,96,0.00,,,0.00,meteohub,2013-08-25 04:08:00,
2013-08-25 00:13:00,55.9,54.9,30.32,East,81,0.0,0.0,96,0.00,,,0.00,meteohub,2013-08-25 04:13:00,
2013-08-25 00:18:00,55.9,54.9,30.32,East,81,0.0,0.0,96,0.00,,,0.00,meteohub,2013-08-25 04:18:00,
2013-08-25 00:23:00,55.8,54.7,30.32,East,81,0.0,0.0,96,0.00,,,0.00,meteohub,2013-08-25 04:23:00,
2013-08-25 00:28:00,55.8,54.7,30.32,East,81,0.0,0.0,96,0.00,,,0.00,meteohub,2013-08-25 04:28:00,
2013-08-25 00:33:00,55.6,54.5,30.32,East,81,0.0,0.0,96,0.00,,,0.00,meteohub,2013-08-25 04:33:00,
2013-08-25 00:38:00,55.8,54.7,30.32,East,81,0.0,0.0,96,0.00,,,0.00,meteohub,2013-08-25 04:38:00,
2013-08-25 00:43:00,55.6,54.5,30.31,East,81,0.0,0.0,96,0.00,,,0.00,meteohub,2013-08-25 04:43:00,
2013-08-25 00:48:00,55.6,54.5,30.32,East,81,0.0,0.0,96,0.00,,,0.00,meteohub,2013-08-25 04:48:00,
2013-08-25 00:53:00,55.2,54.1,30.32,East,81,0.0,0.0,96,0.00,,,0.00,meteohub,2013-08-25 04:53:00,
2013-08-25 00:58:00,55.0,54.0,30.32,East,81,0.0,0.0,96,0.00,,,0.00,meteohub,2013-08-25 04:58:00,
2013-08-25 01:03:00,55.0,54.0,30.32,East,81,0.0,0.0,96,0.00,,,0.00,meteohub,2013-08-25 05:03:00,
2013-08-25 01:08:00,55.0,54.0,30.32,East,81,0.0,0.0,96,0.00,,,0.00,meteohub,2013-08-25 05:08:00,
2013-08-25 01:13:00,55.0,54.0,30.32,East,81,0.0,0.0,96,0.00,,,0.00,meteohub,2013-08-25 05:13:00,
2013-08-25 01:18:00,55.0,54.0,30.32,East,81,0.0,0.0,96,0.00,,,0.00,meteohub,2013-08-25 05:18:00,
2013-08-25 01:23:00,54.9,53.8,30.32,East,81,0.0,0.0,96,0.00,,,0.00,meteohub,2013-08-25 05:23:00,
2013-08-25 01:28:00,54.9,53.8,30.32,East,81,0.0,0.0,96,0.00,,,0.00,meteohub,2013-08-25 05:28:00,
2013-08-25 01:33:00,54.9,53.8,30.32,East,81,0.0,0.0,96,0.00,,,0.00,meteohub,2013-08-25 05:33:00,
2013-08-25 01:38:00,54.7,53.6,30.32,East,81,0.0,0.0,96,0.00,,,0.00,meteohub,2013-08-25 05:38:00,
2013-08-25 01:43:00,54.7,53.6,30.32,East,81,0.0,0.0,96,0.00,,,0.00,meteohub,2013-08-25 05:43:00,
2013-08-25 01:48:00,54.5,53.4,30.32,East,81,0.0,0.0,96,0.00,,,0.00,meteohub,2013-08-25 05:48:00,
2013-08-25 01:53:00,54.3,53.2,30.32,East,81,0.0,0.0,96,0.00,,,0.00,meteohub,2013-08-25 05:53:00,
2013-08-25 01:58:00,54.1,53.1,30.32,East,81,0.0,0.0,96,0.00,,,0.00,meteohub,2013-08-25 05:58:00,
2013-08-25 02:03:00,54.1,53.1,30.32,East,81,0.0,0.0,96,0.00,,,0.00,meteohub,2013-08-25 06:03:00,
2013-08-25 02:08:00,54.1,53.2,30.32,East,81,0.0,0.0,97,0.00,,,0.00,meteohub,2013-08-25 06:08:00,
2013-08-25 02:13:00,54.1,53.2,30.32,East,81,0.0,0.0,97,0.00,,,0.00,meteohub,2013-08-25 06:13:00,
2013-08-25 02:18:00,54.1,53.2,30.32,East,81,0.0,0.0,97,0.00,,,0.00,meteohub,2013-08-25 06:18:00,
2013-08-25 02:23:00,54.1,53.2,30.32,East,81,0.0,0.0,97,0.00,,,0.00,meteohub,2013-08-25 06:23:00,
2013-08-25 02:28:00,54.0,53.1,30.32,East,81,0.0,0.0,97,0.00,,,0.00,meteohub,2013-08-25 06:28:00,
2013-08-25 02:33:00,53.8,52.9,30.32,East,81,0.0,0.0,97,0.00,,,0.00,meteohub,2013-08-25 06:33:00,
2013-08-25 02:38:00,53.8,52.9,30.32,East,81,0.0,0.0,97,0.00,,,0.00,meteohub,2013-08-25 06:38:00,
2013-08-25 02:43:00,53.8,52.9,30.31,East,81,0.0,0.0,97,0.00,,,0.00,meteohub,2013-08-25 06:43:00,
2013-08-25 02:48:00,53.6,52.7,30.31,East,80,0.0,0.0,97,0.00,,,0.00,meteohub,2013-08-25 06:48:00,
2013-08-25 02:53:00,53.4,52.5,30.31,East,80,0.0,0.0,97,0.00,,,0.00,meteohub,2013-08-25 06:53:00,
2013-08-25 02:58:00,53.4,52.5,30.32,East,81,0.0,0.0,97,0.00,,,0.00,meteohub,2013-08-25 06:58:00,
2013-08-25 03:03:00,53.2,52.3,30.32,East,81,0.0,0.0,97,0.00,,,0.00,meteohub,2013-08-25 07:03:00,
2013-08-25 03:08:00,53.1,52.2,30.32,East,81,0.0,0.0,97,0.00,,,0.00,meteohub,2013-08-25 07:08:00,
2013-08-25 03:13:00,53.1,52.2,30.32,East,81,0.0,0.0,97,0.00,,,0.00,meteohub,2013-08-25 07:13:00,
2013-08-25 03:18:00,52.9,52.0,30.32,East,81,0.0,0.0,97,0.00,,,0.00,meteohub,2013-08-25 07:18:00,
2013-08-25 03:24:00,52.9,52.0,30.32,East,81,0.0,0.0,97,0.00,,,0.00,meteohub,2013-08-25 07:24:00,
2013-08-25 03:29:00,52.7,51.8,30.32,East,81,0.0,0.0,97,0.00,,,0.00,meteohub,2013-08-25 07:29:00,
2013-08-25 03:34:00,52.7,51.8,30.32,East,80,0.0,0.0,97,0.00,,,0.00,meteohub,2013-08-25 07:34:00,
2013-08-25 03:39:00,52.5,51.6,30.32,East,81,0.0,0.0,97,0.00,,,0.00,meteohub,2013-08-25 07:39:00,
2013-08-25 03:44:00,52.5,51.6,30.32,East,81,0.0,0.0,97,0.00,,,0.00,meteohub,2013-08-25 07:44:00,
2013-08-25 03:49:00,52.3,51.4,30.31,East,81,0.0,0.0,97,0.00,,,0.00,meteohub,2013-08-25 07:49:00,
2013-08-25 03:54:00,52.3,51.4,30.32,East,81,0.0,0.0,97,0.00,,,0.00,meteohub,2013-08-25 07:54:00,
2013-08-25 03:59:00,52.3,51.4,30.32,East,81,0.0,0.0,97,0.00,,,0.00,meteohub,2013-08-25 07:59:00,
2013-08-25 04:04:00,52.3,51.4,30.32,East,81,0.0,0.0,97,0.00,,,0.00,meteohub,2013-08-25 08:04:00,
2013-08-25 04:09:00,52.3,51.4,30.32,East,81,0.0,0.0,97,0.00,,,0.00,meteohub,2013-08-25 08:09:00,
2013-08-25 04:14:00,52.2,51.3,30.32,East,81,0.0,0.0,97,0.00,,,0.00,meteohub,2013-08-25 08:14:00,
2013-08-25 04:19:00,52.2,51.3,30.32,East,81,0.0,0.0,97,0.00,,,0.00,meteohub,2013-08-25 08:19:00,
2013-08-25 04:24:00,52.2,51.3,30.32,East,80,0.0,0.0,97,0.00,,,0.00,meteohub,2013-08-25 08:24:00,
2013-08-25 04:29:00,52.2,51.3,30.32,East,81,0.0,0.0,97,0.00,,,0.00,meteohub,2013-08-25 08:29:00,
2013-08-25 04:34:00,52.2,51.3,30.32,East,80,0.0,0.0,97,0.00,,,0.00,meteohub,2013-08-25 08:34:00,
2013-08-25 04:39:00,52.2,51.3,30.32,East,80,0.0,0.0,97,0.00,,,0.00,meteohub,2013-08-25 08:39:00,
2013-08-25 04:44:00,52.2,51.3,30.32,East,81,0.0,0.0,97,0.00,,,0.00,meteohub,2013-08-25 08:44:00,
2013-08-25 04:49:00,52.0,51.1,30.32,East,81,0.0,0.0,97,0.00,,,0.00,meteohub,2013-08-25 08:49:00,
2013-08-25 04:54:00,52.0,51.1,30.32,East,81,0.0,0.0,97,0.00,,,0.00,meteohub,2013-08-25 08:54:00,
2013-08-25 04:59:00,52.2,51.3,30.33,East,81,0.0,0.0,97,0.00,,,0.00,meteohub,2013-08-25 08:59:00,
2013-08-25 05:04:00,52.2,51.6,30.33,East,81,0.0,0.0,98,0.00,,,0.00,meteohub,2013-08-25 09:04:00,
2013-08-25 05:09:00,52.0,51.1,30.33,East,81,0.0,0.0,97,0.00,,,0.00,meteohub,2013-08-25 09:09:00,
2013-08-25 05:14:00,52.0,51.1,30.32,East,81,0.0,0.0,97,0.00,,,0.00,meteohub,2013-08-25 09:14:00,
2013-08-25 05:19:00,52.0,51.1,30.32,East,81,0.0,0.0,97,0.00,,,0.00,meteohub,2013-08-25 09:19:00,
2013-08-25 05:24:00,52.0,51.1,30.32,East,81,0.0,0.0,97,0.00,,,0.00,meteohub,2013-08-25 09:24:00,
2013-08-25 05:29:00,52.0,51.4,30.33,East,81,0.0,0.0,98,0.00,,,0.00,meteohub,2013-08-25 09:29:00,
2013-08-25 05:34:00,51.8,51.3,30.33,East,81,0.0,0.0,98,0.00,,,0.00,meteohub,2013-08-25 09:34:00,
2013-08-25 05:39:00,51.8,51.3,30.33,East,81,0.0,0.0,98,0.00,,,0.00,meteohub,2013-08-25 09:39:00,
2013-08-25 05:44:00,51.8,51.3,30.33,East,81,0.0,0.0,98,0.00,,,0.00,meteohub,2013-08-25 09:44:00,
2013-08-25 05:49:00,51.8,51.3,30.33,East,81,0.0,0.0,98,0.00,,,0.00,meteohub,2013-08-25 09:49:00,
2013-08-25 05:54:00,51.8,51.3,30.33,East,80,0.0,0.0,98,0.00,,,0.00,meteohub,2013-08-25 09:54:00,
2013-08-25 05:59:00,51.6,51.1,30.33,East,81,0.0,0.0,98,0.00,,,0.00,meteohub,2013-08-25 09:59:00,
2013-08-25 06:04:00,51.6,51.1,30.34,East,81,0.0,0.0,98,0.00,,,0.00,meteohub,2013-08-25 10:04:00,
2013-08-25 06:09:00,51.6,51.1,30.34,East,81,0.0,0.0,98,0.00,,,0.00,meteohub,2013-08-25 10:09:00,
2013-08-25 06:14:00,51.6,51.1,30.34,East,81,0.0,0.0,98,0.00,,,0.00,meteohub,2013-08-25 10:14:00,
2013-08-25 06:19:00,51.8,51.3,30.34,East,81,0.0,0.0,98,0.00,,,0.00,meteohub,2013-08-25 10:19:00,
2013-08-25 06:24:00,51.6,51.1,30.34,East,81,0.0,0.0,98,0.00,,,0.00,meteohub,2013-08-25 10:24:00,
2013-08-25 06:29:00,51.4,50.9,30.35,East,80,0.0,0.0,98,0.00,,,0.00,meteohub,2013-08-25 10:29:00,
2013-08-25 06:34:00,51.4,50.9,30.35,East,81,0.0,0.0,98,0.00,,,0.00,meteohub,2013-08-25 10:34:00,
2013-08-25 06:39:00,51.4,50.9,30.35,East,81,0.0,0.0,98,0.00,,,0.00,meteohub,2013-08-25 10:39:00,
2013-08-25 06:44:00,51.6,51.1,30.35,East,81,0.0,0.0,98,0.00,,,0.00,meteohub,2013-08-25 10:44:00,
2013-08-25 06:49:00,51.8,51.3,30.35,East,81,0.0,0.0,98,0.00,,,0.00,meteohub,2013-08-25 10:49:00,
2013-08-25 06:54:00,52.0,51.4,30.36,East,81,0.0,0.0,98,0.00,,,0.00,meteohub,2013-08-25 10:54:00,
2013-08-25 07:00:00,51.8,51.3,30.36,East,80,0.0,0.0,98,0.00,,,0.00,meteohub,2013-08-25 11:00:00,
2013-08-25 07:05:00,52.0,51.4,30.36,East,81,0.0,0.0,98,0.00,,,0.00,meteohub,2013-08-25 11:05:00,
2013-08-25 07:10:00,52.0,51.4,30.36,East,81,0.0,0.0,98,0.00,,,0.00,meteohub,2013-08-25 11:10:00,
2013-08-25 07:15:00,52.0,51.4,30.36,East,81,0.0,0.0,98,0.00,,,0.00,meteohub,2013-08-25 11:15:00,
2013-08-25 07:20:00,51.8,51.3,30.37,East,81,0.0,0.0,98,0.00,,,0.00,meteohub,2013-08-25 11:20:00,
2013-08-25 07:25:00,51.6,51.1,30.37,East,80,0.0,0.0,98,0.00,,,0.00,meteohub,2013-08-25 11:25:00,
2013-08-25 07:30:00,51.6,51.1,30.37,East,81,0.0,0.0,98,0.00,,,0.00,meteohub,2013-08-25 11:30:00,
2013-08-25 07:35:00,52.0,51.4,30.37,East,80,0.0,0.0,98,0.00,,,0.00,meteohub,2013-08-25 11:35:00,
2013-08-25 07:40:00,52.3,51.8,30.37,East,80,0.0,0.0,98,0.00,,,0.00,meteohub,2013-08-25 11:40:00,
2013-08-25 07:45:00,52.5,52.0,30.37,East,81,0.0,0.0,98,0.00,,,0.00,meteohub,2013-08-25 11:45:00,
2013-08-25 07:50:00,52.9,52.3,30.37,East,81,0.0,0.0,98,0.00,,,0.00,meteohub,2013-08-25 11:50:00,
2013-08-25 07:55:00,53.2,52.7,30.37,East,81,0.0,0.0,98,0.00,,,0.00,meteohub,2013-08-25 11:55:00,
2013-08-25 08:00:00,54.1,53.6,30.37,East,81,0.0,0.0,98,0.00,,,0.00,meteohub,2013-08-25 12:00:00,
2013-08-25 08:05:00,54.1,53.6,30.37,East,81,0.0,0.0,98,0.00,,,0.00,meteohub,2013-08-25 12:05:00,
2013-08-25 08:10:00,54.7,54.1,30.38,East,81,0.0,0.0,98,0.00,,,0.00,meteohub,2013-08-25 12:10:00,
2013-08-25 08:15:00,55.2,54.7,30.38,East,81,0.0,0.0,98,0.00,,,0.00,meteohub,2013-08-25 12:15:00,
2013-08-25 08:20:00,55.6,55.0,30.38,ENE,57,0.0,0.0,98,0.00,,,0.00,meteohub,2013-08-25 12:20:00,
2013-08-25 08:25:00,56.1,55.6,30.38,ENE,57,0.0,0.0,98,0.00,,,0.00,meteohub,2013-08-25 12:25:00,
2013-08-25 08:30:00,57.6,57.0,30.38,ENE,57,0.0,0.0,98,0.00,,,0.00,meteohub,2013-08-25 12:30:00,
2013-08-25 08:35:00,57.7,57.2,30.39,NE,46,0.0,0.0,98,0.00,,,0.00,meteohub,2013-08-25 12:35:00,
2013-08-25 08:40:00,57.9,57.0,30.39,NE,46,0.0,0.0,97,0.00,,,0.00,meteohub,2013-08-25 12:40:00,
2013-08-25 08:45:00,58.6,57.6,30.39,NE,47,0.0,1.0,96,0.00,,,0.00,meteohub,2013-08-25 12:45:00,
2013-08-25 08:50:00,59.5,58.1,30.39,NE,44,0.0,1.0,95,0.00,,,0.00,meteohub,2013-08-25 12:50:00,
2013-08-25 08:55:00,60.4,58.5,30.39,NNE,33,1.0,1.0,93,0.00,,,0.00,meteohub,2013-08-25 12:55:00,
2013-08-25 09:00:00,61.2,58.3,30.39,ESE,113,1.0,1.0,90,0.00,,,0.00,meteohub,2013-08-25 13:00:00,
2013-08-25 09:05:00,62.2,58.3,30.39,NE,52,0.0,1.0,87,0.00,,,0.00,meteohub,2013-08-25 13:05:00,
2013-08-25 09:10:00,62.4,57.6,30.39,NE,44,0.0,2.0,84,0.00,,,0.00,meteohub,2013-08-25 13:10:00,
2013-08-25 09:15:00,62.6,57.7,30.39,NE,40,0.0,2.0,84,0.00,,,0.00,meteohub,2013-08-25 13:15:00,
2013-08-25 09:20:00,62.6,57.7,30.40,NE,41,1.0,4.0,84,0.00,,,0.00,meteohub,2013-08-25 13:20:00,
2013-08-25 09:25:00,62.8,57.9,30.40,NE,39,3.0,4.0,84,0.00,,,0.00,meteohub,2013-08-25 13:25:00,
2013-08-25 09:30:00,62.8,57.9,30.40,NE,41,2.0,4.0,84,0.00,,,0.00,meteohub,2013-08-25 13:30:00,
2013-08-25 09:35:00,63.0,58.1,30.40,NNE,29,2.0,5.0,84,0.00,,,0.00,meteohub,2013-08-25 13:35:00,
2013-08-25 09:40:00,63.0,57.7,30.40,ENE,68,1.0,5.0,83,0.00,,,0.00,meteohub,2013-08-25 13:40:00,
2013-08-25 09:45:00,63.3,58.5,30.40,ENE,67,0.0,5.0,84,0.00,,,0.00,meteohub,2013-08-25 13:45:00,
2013-08-25 09:50:00,63.7,58.1,30.40,NE,54,2.0,3.0,82,0.00,,,0.00,meteohub,2013-08-25 13:50:00,
2013-08-25 09:55:00,63.9,58.6,30.40,NNE,25,1.0,6.0,83,0.00,,,0.00,meteohub,2013-08-25 13:55:00,
2013-08-25 10:00:00,64.0,58.8,30.40,NNE,13,1.0,6.0,83,0.00,,,0.00,meteohub,2013-08-25 14:00:00,
2013-08-25 10:05:00,64.4,58.8,30.40,ENE,77,1.0,6.0,82,0.00,,,0.00,meteohub,2013-08-25 14:05:00,
2013-08-25 10:10:00,64.9,59.0,30.40,East,87,0.0,6.0,81,0.00,,,0.00,meteohub,2013-08-25 14:10:00,
2013-08-25 10:15:00,65.7,59.4,30.40,North,8,0.0,4.0,80,0.00,,,0.00,meteohub,2013-08-25 14:15:00,
2013-08-25 10:20:00,66.4,59.0,30.40,NE,40,2.0,5.0,77,0.00,,,0.00,meteohub,2013-08-25 14:20:00,
2013-08-25 10:25:00,66.6,59.2,30.40,ENE,72,1.0,5.0,77,0.00,,,0.00,meteohub,2013-08-25 14:25:00,
2013-08-25 10:30:00,66.7,57.4,30.40,NE,50,5.0,5.0,72,0.00,,,0.00,meteohub,2013-08-25 14:30:00,
2013-08-25 10:35:00,66.0,57.6,30.40,NNW,345,0.0,9.0,74,0.00,,,0.00,meteohub,2013-08-25 14:35:00,
2013-08-25 10:40:00,66.4,57.9,30.40,WSW,252,0.0,9.0,74,0.00,,,0.00,meteohub,2013-08-25 14:40:00,
2013-08-25 10:45:00,66.6,57.6,30.40,NNW,343,0.0,5.0,73,0.00,,,0.00,meteohub,2013-08-25 14:45:00,
2013-08-25 10:51:00,66.7,57.7,30.40,NNW,334,0.0,5.0,73,0.00,,,0.00,meteohub,2013-08-25 14:51:00,
2013-08-25 10:56:00,66.6,57.6,30.40,NE,46,0.0,5.0,73,0.00,,,0.00,meteohub,2013-08-25 14:56:00,
2013-08-25 11:01:00,66.9,58.8,30.40,WNW,295,0.0,5.0,75,0.00,,,0.00,meteohub,2013-08-25 15:01:00,
2013-08-25 11:06:00,67.5,57.4,30.39,NE,34,1.0,3.0,70,0.00,,,0.00,meteohub,2013-08-25 15:06:00,
2013-08-25 11:11:00,66.7,56.7,30.39,NNE,18,3.0,8.0,70,0.00,,,0.00,meteohub,2013-08-25 15:11:00,
2013-08-25 11:16:00,66.6,58.8,30.39,West,262,0.0,8.0,76,0.00,,,0.00,meteohub,2013-08-25 15:16:00,
2013-08-25 11:21:00,66.9,58.3,30.39,NW,315,0.0,8.0,74,0.00,,,0.00,meteohub,2013-08-25 15:21:00,
2013-08-25 11:26:00,67.3,57.6,30.39,NE,54,4.0,5.0,71,0.00,,,0.00,meteohub,2013-08-25 15:26:00,
2013-08-25 11:31:00,66.7,58.1,30.39,NE,50,0.0,6.0,74,0.00,,,0.00,meteohub,2013-08-25 15:31:00,
2013-08-25 11:36:00,66.7,58.6,30.39,NE,50,0.0,6.0,75,0.00,,,0.00,meteohub,2013-08-25 15:36:00,
2013-08-25 11:41:00,66.7,58.1,30.39,NNE,23,2.0,6.0,74,0.00,,,0.00,meteohub,2013-08-25 15:41:00,
2013-08-25 11:46:00,66.7,57.7,30.38,NE,44,5.0,6.0,73,0.00,,,0.00,meteohub,2013-08-25 15:46:00,
2013-08-25 11:51:00,66.7,57.4,30.38,NE,49,0.0,6.0,72,0.00,,,0.00,meteohub,2013-08-25 15:51:00,
2013-08-25 11:56:00,67.5,57.7,30.38,NNE,12,5.0,6.0,71,0.00,,,0.00,meteohub,2013-08-25 15:56:00,
2013-08-25 12:01:00,67.8,57.2,30.38,North,11,3.0,7.0,69,0.00,,,0.00,meteohub,2013-08-25 16:01:00,
2013-08-25 12:06:00,67.8,57.7,30.38,North,6,2.0,9.0,70,0.00,,,0.00,meteohub,2013-08-25 16:06:00,
2013-08-25 12:11:00,68.2,58.1,30.38,NW,320,0.0,9.0,70,0.00,,,0.00,meteohub,2013-08-25 16:11:00,
2013-08-25 12:16:00,68.0,57.4,30.38,North,7,2.0,9.0,69,0.00,,,0.00,meteohub,2013-08-25 16:16:00,
2013-08-25 12:21:00,67.6,57.9,30.38,South,180,0.0,8.0,71,0.00,,,0.00,meteohub,2013-08-25 16:21:00,
2013-08-25 12:26:00,67.6,57.6,30.38,NNE,20,4.0,7.0,70,0.00,,,0.00,meteohub,2013-08-25 16:26:00,
2013-08-25 12:31:00,67.6,58.6,30.37,NE,54,0.0,4.0,73,0.00,,,0.00,meteohub,2013-08-25 16:31:00,
2013-08-25 12:36:00,67.6,57.6,30.37,SE,128,2.0,4.0,70,0.00,,,0.00,meteohub,2013-08-25 16:36:00,
2013-08-25 12:41:00,67.6,58.3,30.37,NNE,30,0.0,4.0,72,0.00,,,0.00,meteohub,2013-08-25 16:41:00,
2013-08-25 12:46:00,68.0,59.7,30.37,NE,41,2.0,4.0,75,0.00,,,0.00,meteohub,2013-08-25 16:46:00,
2013-08-25 12:51:00,68.9,58.6,30.37,ESE,117,0.0,4.0,70,0.00,,,0.00,meteohub,2013-08-25 16:51:00,
2013-08-25 12:56:00,68.7,58.1,30.37,NE,44,2.0,7.0,69,0.00,,,0.00,meteohub,2013-08-25 16:56:00,
2013-08-25 13:01:00,68.7,58.1,30.37,NNW,345,1.0,7.0,69,0.00,,,0.00,meteohub,2013-08-25 17:01:00,
2013-08-25 13:06:00,69.1,58.8,30.37,East,93,2.0,7.0,70,0.00,,,0.00,meteohub,2013-08-25 17:06:00,
2013-08-25 13:11:00,68.7,59.0,30.37,NNW,328,0.0,7.0,71,0.00,,,0.00,meteohub,2013-08-25 17:11:00,
2013-08-25 13:16:00,68.9,58.6,30.37,ENE,62,3.0,7.0,70,0.00,,,0.00,meteohub,2013-08-25 17:16:00,
2013-08-25 13:21:00,68.4,58.6,30.37,North,11,2.0,9.0,71,0.00,,,0.00,meteohub,2013-08-25 17:21:00,
2013-08-25 13:26:00,68.4,59.4,30.37,NE,54,2.0,9.0,73,0.00,,,0.00,meteohub,2013-08-25 17:26:00,
2013-08-25 13:31:00,69.1,59.4,30.36,East,84,0.0,9.0,71,0.00,,,0.00,meteohub,2013-08-25 17:31:00,
2013-08-25 13:36:00,69.6,58.6,30.36,NNE,23,0.0,8.0,68,0.00,,,0.00,meteohub,2013-08-25 17:36:00,
2013-08-25 13:41:00,69.6,58.1,30.35,East,85,3.0,7.0,67,0.00,,,0.00,meteohub,2013-08-25 17:41:00,
2013-08-25 13:46:00,69.3,57.0,30.35,NNE,15,1.0,7.0,65,0.00,,,0.00,meteohub,2013-08-25 17:46:00,
2013-08-25 13:51:00,69.4,57.9,30.35,East,92,0.0,7.0,67,0.00,,,0.00,meteohub,2013-08-25 17:51:00,
2013-08-25 13:56:00,69.6,58.1,30.34,NE,44,1.0,6.0,67,0.00,,,0.00,meteohub,2013-08-25 17:56:00,
2013-08-25 14:01:00,69.4,58.5,30.34,SSW,203,0.0,5.0,68,0.00,,,0.00,meteohub,2013-08-25 18:01:00,
2013-08-25 14:06:00,70.0,59.0,30.34,NNE,32,4.0,5.0,68,0.00,,,0.00,meteohub,2013-08-25 18:06:00,
2013-08-25 14:11:00,70.2,59.2,30.34,ENE,67,2.0,9.0,68,0.00,,,0.00,meteohub,2013-08-25 18:11:00,
2013-08-25 14:16:00,70.0,57.7,30.34,NNW,347,0.0,9.0,65,0.00,,,0.00,meteohub,2013-08-25 18:16:00,
2013-08-25 14:22:00,70.3,58.1,30.33,WNW,300,0.0,9.0,65,0.00,,,0.00,meteohub,2013-08-25 18:22:00,
2013-08-25 14:27:00,70.9,57.2,30.33,NE,40,0.0,8.0,62,0.00,,,0.00,meteohub,2013-08-25 18:27:00,
2013-08-25 14:32:00,70.9,58.5,30.33,NNE,15,3.0,5.0,65,0.00,,,0.00,meteohub,2013-08-25 18:32:00,
2013-08-25 14:37:00,70.5,58.1,30.33,NNE,30,3.0,9.0,65,0.00,,,0.00,meteohub,2013-08-25 18:37:00,
2013-08-25 14:42:00,70.5,59.9,30.33,West,277,0.0,9.0,69,0.00,,,0.00,meteohub,2013-08-25 18:42:00,
2013-08-25 14:47:00,70.9,59.0,30.33,NE,41,4.0,9.0,66,0.00,,,0.00,meteohub,2013-08-25 18:47:00,
2013-08-25 14:52:00,70.7,58.3,30.33,ENE,70,2.0,8.0,65,0.00,,,0.00,meteohub,2013-08-25 18:52:00,
2013-08-25 14:57:00,70.5,57.7,30.32,NW,324,0.0,7.0,64,0.00,,,0.00,meteohub,2013-08-25 18:57:00,
2013-08-25 15:02:00,70.5,57.7,30.32,ENE,60,0.0,7.0,64,0.00,,,0.00,meteohub,2013-08-25 19:02:00,
2013-08-25 15:07:00,70.3,58.5,30.32,West,260,1.0,6.0,66,0.00,,,0.00,meteohub,2013-08-25 19:07:00,
2013-08-25 15:12:00,70.3,59.4,30.32,NNE,16,0.0,6.0,68,0.00,,,0.00,meteohub,2013-08-25 19:12:00,
2013-08-25 15:17:00,70.7,59.5,30.32,NNW,343,0.0,6.0,68,0.00,,,0.00,meteohub,2013-08-25 19:17:00,
2013-08-25 15:22:00,70.9,59.4,30.32,WSW,243,1.0,6.0,67,0.00,,,0.00,meteohub,2013-08-25 19:22:00,
2013-08-25 15:27:00,70.7,59.5,30.32,North,11,0.0,4.0,68,0.00,,,0.00,meteohub,2013-08-25 19:27:00,
2013-08-25 15:32:00,70.3,59.7,30.31,NE,43,2.0,4.0,69,0.00,,,0.00,meteohub,2013-08-25 19:32:00,
2013-08-25 15:37:00,69.6,58.6,30.31,NE,44,0.0,4.0,68,0.00,,,0.00,meteohub,2013-08-25 19:37:00,
2013-08-25 15:42:00,69.3,58.6,30.31,ESE,113,0.0,5.0,69,0.00,,,0.00,meteohub,2013-08-25 19:42:00,
2013-08-25 15:47:00,69.6,58.6,30.31,NNE,33,0.0,5.0,68,0.00,,,0.00,meteohub,2013-08-25 19:47:00,
2013-08-25 15:52:00,70.2,57.9,30.31,NNE,27,0.0,5.0,65,0.00,,,0.00,meteohub,2013-08-25 19:52:00,
2013-08-25 15:57:00,70.7,59.2,30.31,NNE,27,3.0,4.0,67,0.00,,,0.00,meteohub,2013-08-25 19:57:00,
2013-08-25 16:02:00,70.2,58.6,30.31,SSW,196,0.0,7.0,67,0.00,,,0.00,meteohub,2013-08-25 20:02:00,
2013-08-25 16:07:00,69.6,58.6,30.32,NE,43,2.0,7.0,68,0.00,,,0.00,meteohub,2013-08-25 20:07:00,
2013-08-25 16:12:00,69.4,58.8,30.31,NNW,345,2.0,7.0,69,0.00,,,0.00,meteohub,2013-08-25 20:12:00,
2013-08-25 16:17:00,69.8,59.2,30.31,NNE,23,4.0,4.0,69,0.00,,,0.00,meteohub,2013-08-25 20:17:00,
2013-08-25 16:22:00,70.0,58.5,30.31,NNE,15,3.0,7.0,67,0.00,,,0.00,meteohub,2013-08-25 20:22:00,
2013-08-25 16:27:00,70.0,59.0,30.31,North,351,2.0,9.0,68,0.00,,,0.00,meteohub,2013-08-25 20:27:00,
2013-08-25 16:32:00,69.8,58.3,30.30,ESE,115,2.0,9.0,67,0.00,,,0.00,meteohub,2013-08-25 20:32:00,
2013-08-25 16:37:00,69.4,57.6,30.31,WNW,298,0.0,9.0,66,0.00,,,0.00,meteohub,2013-08-25 20:37:00,
2013-08-25 16:42:00,69.4,57.9,30.31,NE,56,1.0,7.0,67,0.00,,,0.00,meteohub,2013-08-25 20:42:00,
2013-08-25 16:47:00,69.6,58.1,30.30,SE,139,2.0,7.0,67,0.00,,,0.00,meteohub,2013-08-25 20:47:00,
2013-08-25 16:52:00,69.6,57.7,30.30,NNE,29,0.0,7.0,66,0.00,,,0.00,meteohub,2013-08-25 20:52:00,
2013-08-25 16:57:00,69.6,58.6,30.30,NNW,340,3.0,5.0,68,0.00,,,0.00,meteohub,2013-08-25 20:57:00,
2013-08-25 17:02:00,69.4,57.6,30.30,ENE,62,1.0,5.0,66,0.00,,,0.00,meteohub,2013-08-25 21:02:00,
2013-08-25 17:07:00,69.3,57.9,30.31,NE,50,1.0,6.0,67,0.00,,,0.00,meteohub,2013-08-25 21:07:00,
2013-08-25 17:12:00,69.3,58.3,30.30,North,5,1.0,6.0,68,0.00,,,0.00,meteohub,2013-08-25 21:12:00,
2013-08-25 17:17:00,69.4,59.2,30.30,North,11,0.0,4.0,70,0.00,,,0.00,meteohub,2013-08-25 21:17:00,
2013-08-25 17:22:00,69.6,59.0,30.30,NNE,16,5.0,5.0,69,0.00,,,0.00,meteohub,2013-08-25 21:22:00,
2013-08-25 17:27:00,69.4,58.5,30.30,ENE,76,2.0,6.0,68,0.00,,,0.00,meteohub,2013-08-25 21:27:00,
2013-08-25 17:32:00,69.4,61.2,30.30,NW,321,0.0,6.0,75,0.00,,,0.00,meteohub,2013-08-25 21:32:00,
2013-08-25 17:37:00,69.3,61.7,30.30,NNW,343,0.0,6.0,77,0.00,,,0.00,meteohub,2013-08-25 21:37:00,
2013-08-25 17:42:00,69.3,59.9,30.30,NE,35,2.0,4.0,72,0.00,,,0.00,meteohub,2013-08-25 21:42:00,
2013-08-25 17:47:00,69.3,60.6,30.30,NW,324,0.0,3.0,74,0.00,,,0.00,meteohub,2013-08-25 21:47:00,
2013-08-25 17:52:00,69.1,59.7,30.30,NNW,330,0.0,5.0,72,0.00,,,0.00,meteohub,2013-08-25 21:52:00,
2013-08-25 17:57:00,69.1,59.7,30.31,ENE,60,6.0,6.0,72,0.00,,,0.00,meteohub,2013-08-25 21:57:00,
2013-08-25 18:02:00,68.9,59.2,30.30,SSE,162,0.0,8.0,71,0.00,,,0.00,meteohub,2013-08-25 22:02:00,
2013-08-25 18:07:00,68.7,59.4,30.30,NNE,22,4.0,8.0,72,0.00,,,0.00,meteohub,2013-08-25 22:07:00,
2013-08-25 18:12:00,68.5,59.2,30.30,ESE,117,0.0,8.0,72,0.00,,,0.00,meteohub,2013-08-25 22:12:00,
2013-08-25 18:17:00,68.5,59.2,30.30,NE,40,3.0,5.0,72,0.00,,,0.00,meteohub,2013-08-25 22:17:00,
2013-08-25 18:22:00,68.2,58.8,30.30,NE,40,0.0,6.0,72,0.00,,,0.00,meteohub,2013-08-25 22:22:00,
2013-08-25 18:27:00,68.2,59.2,30.30,WNW,299,0.0,6.0,73,0.00,,,0.00,meteohub,2013-08-25 22:27:00,
2013-08-25 18:32:00,68.0,59.4,30.30,North,349,0.0,6.0,74,0.00,,,0.00,meteohub,2013-08-25 22:32:00,
2013-08-25 18:37:00,67.8,59.5,30.30,NNE,18,0.0,4.0,75,0.00,,,0.00,meteohub,2013-08-25 22:37:00,
2013-08-25 18:42:00,67.8,59.9,30.31,NNE,15,0.0,4.0,76,0.00,,,0.00,meteohub,2013-08-25 22:42:00,
2013-08-25 18:47:00,67.6,59.4,30.31,WNW,293,0.0,4.0,75,0.00,,,0.00,meteohub,2013-08-25 22:47:00,
2013-08-25 18:52:00,67.5,59.2,30.31,North,4,0.0,4.0,75,0.00,,,0.00,meteohub,2013-08-25 22:52:00,
2013-08-25 18:57:00,67.3,59.5,30.31,NW,318,0.0,4.0,76,0.00,,,0.00,meteohub,2013-08-25 22:57:00,
2013-08-25 19:02:00,66.7,60.1,30.31,NNE,12,0.0,4.0,79,0.00,,,0.00,meteohub,2013-08-25 23:02:00,
2013-08-25 19:07:00,66.2,60.3,30.31,NW,307,0.0,4.0,81,0.00,,,0.00,meteohub,2013-08-25 23:07:00,
2013-08-25 19:12:00,65.7,59.4,30.30,West,270,0.0,1.0,80,0.00,,,0.00,meteohub,2013-08-25 23:12:00,
2013-08-25 19:17:00,65.5,59.5,30.30,West,270,0.0,1.0,81,0.00,,,0.00,meteohub,2013-08-25 23:17:00,
2013-08-25 19:22:00,65.1,59.5,30.31,WNW,287,0.0,1.0,82,0.00,,,0.00,meteohub,2013-08-25 23:22:00,
2013-08-25 19:27:00,64.8,59.5,30.31,NNE,13,0.0,1.0,83,0.00,,,0.00,meteohub,2013-08-25 23:27:00,
2013-08-25 19:32:00,64.6,59.7,30.31,NNE,13,0.0,1.0,84,0.00,,,0.00,meteohub,2013-08-25 23:32:00,
2013-08-25 19:37:00,64.4,59.7,30.31,NNE,20,0.0,1.0,85,0.00,,,0.00,meteohub,2013-08-25 23:37:00,
2013-08-25 19:42:00,64.0,59.2,30.31,NNE,13,0.0,2.0,84,0.00,,,0.00,meteohub,2013-08-25 23:42:00,
2013-08-25 19:47:00,64.0,59.4,30.31,NNE,33,0.0,4.0,85,0.00,,,0.00,meteohub,2013-08-25 23:47:00,
2013-08-25 19:52:00,63.9,59.2,30.31,NNE,25,0.0,4.0,85,0.00,,,0.00,meteohub,2013-08-25 23:52:00,
2013-08-25 19:57:00,63.7,59.4,30.31,North,5,0.0,4.0,86,0.00,,,0.00,meteohub,2013-08-25 23:57:00,
2013-08-25 20:02:00,63.3,59.4,30.31,North,5,0.0,3.0,87,0.00,,,0.00,meteohub,2013-08-26 00:02:00,
2013-08-25 20:07:00,63.1,59.5,30.31,North,5,0.0,1.0,88,0.00,,,0.00,meteohub,2013-08-26 00:07:00,
2013-08-25 20:12:00,62.6,59.4,30.31,North,6,0.0,0.0,89,0.00,,,0.00,meteohub,2013-08-26 00:12:00,
2013-08-25 20:17:00,62.2,59.0,30.31,North,5,0.0,0.0,89,0.00,,,0.00,meteohub,2013-08-26 00:17:00,
2013-08-25 20:22:00,61.9,59.0,30.32,North,6,0.0,0.0,90,0.00,,,0.00,meteohub,2013-08-26 00:22:00,
2013-08-25 20:27:00,61.3,58.6,30.32,North,5,0.0,0.0,91,0.00,,,0.00,meteohub,2013-08-26 00:27:00,
2013-08-25 20:32:00,61.0,58.3,30.32,North,6,0.0,0.0,91,0.00,,,0.00,meteohub,2013-08-26 00:32:00,
2013-08-25 20:37:00,60.6,57.9,30.32,North,5,0.0,0.0,91,0.00,,,0.00,meteohub,2013-08-26 00:37:00,
2013-08-25 20:42:00,60.3,57.9,30.32,North,5,0.0,0.0,92,0.00,,,0.00,meteohub,2013-08-26 00:42:00,
2013-08-25 20:47:00,60.1,57.7,30.32,North,5,0.0,0.0,92,0.00,,,0.00,meteohub,2013-08-26 00:47:00,
2013-08-25 20:52:00,59.7,57.4,30.33,North,5,0.0,0.0,92,0.00,,,0.00,meteohub,2013-08-26 00:52:00,
2013-08-25 20:57:00,59.5,57.6,30.32,North,5,0.0,0.0,93,0.00,,,0.00,meteohub,2013-08-26 00:57:00,
2013-08-25 21:02:00,59.5,57.6,30.33,North,5,0.0,0.0,93,0.00,,,0.00,meteohub,2013-08-26 01:02:00,
2013-08-25 21:07:00,59.4,57.4,30.33,North,6,0.0,0.0,93,0.00,,,0.00,meteohub,2013-08-26 01:07:00,
2013-08-25 21:12:00,59.5,57.7,30.33,North,6,0.0,0.0,94,0.00,,,0.00,meteohub,2013-08-26 01:12:00,
2013-08-25 21:17:00,59.5,57.7,30.33,North,6,0.0,1.0,94,0.00,,,0.00,meteohub,2013-08-26 01:17:00,
2013-08-25 21:22:00,59.7,57.9,30.33,North,6,0.0,1.0,94,0.00,,,0.00,meteohub,2013-08-26 01:22:00,
2013-08-25 21:27:00,59.7,57.9,30.33,North,6,0.0,1.0,94,0.00,,,0.00,meteohub,2013-08-26 01:27:00,
2013-08-25 21:32:00,59.7,57.9,30.34,North,6,0.0,1.0,94,0.00,,,0.00,meteohub,2013-08-26 01:32:00,
2013-08-25 21:37:00,59.7,57.9,30.34,North,6,0.0,1.0,94,0.00,,,0.00,meteohub,2013-08-26 01:37:00,
2013-08-25 21:42:00,59.7,58.3,30.34,North,6,0.0,0.0,95,0.00,,,0.00,meteohub,2013-08-26 01:42:00,
2013-08-25 21:47:00,59.7,57.9,30.34,North,6,0.0,0.0,94,0.00,,,0.00,meteohub,2013-08-26 01:47:00,
2013-08-25 21:52:00,59.7,57.9,30.34,North,6,0.0,0.0,94,0.00,,,0.00,meteohub,2013-08-26 01:52:00,
2013-08-25 21:57:00,59.7,58.3,30.34,North,6,0.0,0.0,95,0.00,,,0.00,meteohub,2013-08-26 01:57:00,
2013-08-25 22:02:00,59.5,57.7,30.34,North,6,0.0,1.0,94,0.00,,,0.00,meteohub,2013-08-26 02:02:00,
2013-08-25 22:07:00,59.4,57.6,30.35,North,6,0.0,1.0,94,0.00,,,0.00,meteohub,2013-08-26 02:07:00,
2013-08-25 22:12:00,59.2,57.4,30.35,North,6,0.0,1.0,94,0.00,,,0.00,meteohub,2013-08-26 02:12:00,
2013-08-25 22:17:00,59.0,57.6,30.34,North,6,0.0,0.0,95,0.00,,,0.00,meteohub,2013-08-26 02:17:00,
2013-08-25 22:22:00,58.8,57.4,30.34,North,6,0.0,0.0,95,0.00,,,0.00,meteohub,2013-08-26 02:22:00,
2013-08-25 22:27:00,58.8,57.4,30.35,North,6,0.0,0.0,95,0.00,,,0.00,meteohub,2013-08-26 02:27:00,
2013-08-25 22:32:00,58.6,57.2,30.35,North,6,0.0,0.0,95,0.00,,,0.00,meteohub,2013-08-26 02:32:00,
2013-08-25 22:37:00,58.6,57.2,30.35,North,6,0.0,0.0,95,0.00,,,0.00,meteohub,2013-08-26 02:37:00,
2013-08-25 22:42:00,58.6,57.2,30.35,North,6,0.0,0.0,95,0.00,,,0.00,meteohub,2013-08-26 02:42:00,
2013-08-25 22:47:00,58.6,57.2,30.35,North,6,0.0,0.0,95,0.00,,,0.00,meteohub,2013-08-26 02:47:00,
2013-08-25 22:52:00,58.6,57.6,30.35,North,6,0.0,0.0,96,0.00,,,0.00,meteohub,2013-08-26 02:52:00,
2013-08-25 22:57:00,58.6,57.6,30.35,North,6,0.0,0.0,96,0.00,,,0.00,meteohub,2013-08-26 02:57:00,
2013-08-25 23:02:00,58.8,57.7,30.35,North,6,0.0,0.0,96,0.00,,,0.00,meteohub,2013-08-26 03:02:00,
2013-08-25 23:07:00,58.8,57.7,30.35,North,6,0.0,0.0,96,0.00,,,0.00,meteohub,2013-08-26 03:07:00,
2013-08-25 23:12:00,58.8,57.7,30.35,North,6,0.0,0.0,96,0.00,,,0.00,meteohub,2013-08-26 03:12:00,
2013-08-25 23:17:00,59.0,57.9,30.36,North,6,0.0,0.0,96,0.00,,,0.00,meteohub,2013-08-26 03:17:00,
2013-08-25 23:22:00,58.8,57.7,30.35,North,6,0.0,0.0,96,0.00,,,0.00,meteohub,2013-08-26 03:22:00,
2013-08-25 23:27:00,59.0,57.9,30.35,North,6,0.0,0.0,96,0.00,,,0.00,meteohub,2013-08-26 03:27:00,
2013-08-25 23:32:00,58.8,57.7,30.35,North,6,0.0,0.0,96,0.00,,,0.00,meteohub,2013-08-26 03:32:00,
2013-08-25 23:37:00,58.8,57.7,30.35,North,6,0.0,0.0,96,0.00,,,0.00,meteohub,2013-08-26 03:37:00,
2013-08-25 23:42:00,58.8,57.7,30.35,North,7,0.0,0.0,96,0.00,,,0.00,meteohub,2013-08-26 03:42:00,
2013-08-25 23:47:00,58.8,57.7,30.36,North,6,0.0,0.0,96,0.00,,,0.00,meteohub,2013-08-26 03:47:00,
2013-08-25 23:52:00,58.6,57.6,30.36,North,7,0.0,0.0,96,0.00,,,0.00,meteohub,2013-08-26 03:52:00,
2013-08-25 23:57:00,58.5,57.4,30.36,North,6,0.0,0.0,96,0.00,,,0.00,meteohub,2013-08-26 03:57:00,